sensor_id;sensor_type;location;lat;lon;timestamp;P1;durP1;ratioP1;P2;durP2;ratioP2
32445;SDS011;18899;50.748;7.102;2023-06-14T00:01:51;8.93;;;4.35;;
32445;SDS011;18899;50.748;7.102;2023-06-14T00:04:17;13.98;;;5.55;;
32445;SDS011;18899;50.748;7.102;2023-06-14T00:06:43;12.07;;;3.80;;
32445;SDS011;18899;50.748;7.102;2023-06-14T00:09:13;6.82;;;4.28;;
32445;SDS011;18899;50.748;7.102;2023-06-14T00:11:39;8.25;;;4.07;;
32445;SDS011;18899;50.748;7.102;2023-06-14T00:14:05;12.02;;;4.68;;
32445;SDS011;18899;50.748;7.102;2023-06-14T00:16:31;10.00;;;4.05;;
32445;SDS011;18899;50.748;7.102;2023-06-14T00:18:58;7.93;;;3.97;;
32445;SDS011;18899;50.748;7.102;2023-06-14T00:21:24;6.32;;;3.95;;
32445;SDS011;18899;50.748;7.102;2023-06-14T00:23:49;7.18;;;3.50;;
32445;SDS011;18899;50.748;7.102;2023-06-14T00:26:15;6.38;;;4.22;;
32445;SDS011;18899;50.748;7.102;2023-06-14T00:28:41;6.35;;;3.83;;
32445;SDS011;18899;50.748;7.102;2023-06-14T00:31:06;5.32;;;3.97;;
32445;SDS011;18899;50.748;7.102;2023-06-14T00:33:32;7.85;;;4.07;;
32445;SDS011;18899;50.748;7.102;2023-06-14T00:35:57;6.40;;;4.15;;
32445;SDS011;18899;50.748;7.102;2023-06-14T00:38:23;8.30;;;3.42;;
32445;SDS011;18899;50.748;7.102;2023-06-14T00:40:48;6.80;;;3.88;;
32445;SDS011;18899;50.748;7.102;2023-06-14T00:43:14;6.55;;;3.92;;
32445;SDS011;18899;50.748;7.102;2023-06-14T00:45:39;7.93;;;4.50;;
32445;SDS011;18899;50.748;7.102;2023-06-14T00:48:05;6.55;;;4.13;;
32445;SDS011;18899;50.748;7.102;2023-06-14T00:50:32;8.38;;;4.85;;
32445;SDS011;18899;50.748;7.102;2023-06-14T00:53:02;8.07;;;3.83;;
32445;SDS011;18899;50.748;7.102;2023-06-14T00:55:28;9.55;;;4.53;;
32445;SDS011;18899;50.748;7.102;2023-06-14T00:57:54;16.90;;;5.13;;
32445;SDS011;18899;50.748;7.102;2023-06-14T01:00:20;9.57;;;4.57;;
32445;SDS011;18899;50.748;7.102;2023-06-14T01:02:46;8.45;;;4.07;;
32445;SDS011;18899;50.748;7.102;2023-06-14T01:05:12;8.40;;;4.32;;
32445;SDS011;18899;50.748;7.102;2023-06-14T01:08:43;7.22;;;4.50;;
32445;SDS011;18899;50.748;7.102;2023-06-14T01:11:06;7.88;;;4.55;;
32445;SDS011;18899;50.748;7.102;2023-06-14T01:13:40;9.13;;;4.47;;
32445;SDS011;18899;50.748;7.102;2023-06-14T01:16:10;7.32;;;4.78;;
32445;SDS011;18899;50.748;7.102;2023-06-14T01:18:36;10.63;;;4.43;;
32445;SDS011;18899;50.748;7.102;2023-06-14T01:21:02;8.10;;;5.22;;
32445;SDS011;18899;50.748;7.102;2023-06-14T01:23:31;10.63;;;4.72;;
32445;SDS011;18899;50.748;7.102;2023-06-14T01:25:58;7.35;;;4.50;;
32445;SDS011;18899;50.748;7.102;2023-06-14T01:28:24;7.70;;;4.93;;
32445;SDS011;18899;50.748;7.102;2023-06-14T01:30:56;10.05;;;5.15;;
32445;SDS011;18899;50.748;7.102;2023-06-14T01:33:26;8.38;;;4.97;;
32445;SDS011;18899;50.748;7.102;2023-06-14T01:35:53;6.80;;;4.55;;
32445;SDS011;18899;50.748;7.102;2023-06-14T01:38:20;8.02;;;4.85;;
32445;SDS011;18899;50.748;7.102;2023-06-14T01:40:48;7.57;;;4.53;;
32445;SDS011;18899;50.748;7.102;2023-06-14T01:43:15;8.90;;;5.13;;
32445;SDS011;18899;50.748;7.102;2023-06-14T01:45:42;13.45;;;5.32;;
32445;SDS011;18899;50.748;7.102;2023-06-14T01:48:10;8.52;;;4.88;;
32445;SDS011;18899;50.748;7.102;2023-06-14T01:50:37;16.02;;;5.85;;
32445;SDS011;18899;50.748;7.102;2023-06-14T01:53:02;7.88;;;5.20;;
32445;SDS011;18899;50.748;7.102;2023-06-14T01:55:28;9.88;;;5.15;;
32445;SDS011;18899;50.748;7.102;2023-06-14T01:57:54;12.95;;;5.60;;
32445;SDS011;18899;50.748;7.102;2023-06-14T02:00:20;9.90;;;5.10;;
32445;SDS011;18899;50.748;7.102;2023-06-14T02:02:46;10.82;;;5.68;;
32445;SDS011;18899;50.748;7.102;2023-06-14T02:05:12;8.18;;;5.05;;
32445;SDS011;18899;50.748;7.102;2023-06-14T02:07:38;11.30;;;5.18;;
32445;SDS011;18899;50.748;7.102;2023-06-14T02:10:04;9.40;;;4.93;;
32445;SDS011;18899;50.748;7.102;2023-06-14T02:12:30;9.23;;;5.03;;
32445;SDS011;18899;50.748;7.102;2023-06-14T02:14:55;8.13;;;4.45;;
32445;SDS011;18899;50.748;7.102;2023-06-14T02:17:21;8.60;;;4.43;;
32445;SDS011;18899;50.748;7.102;2023-06-14T02:19:47;9.23;;;4.50;;
32445;SDS011;18899;50.748;7.102;2023-06-14T02:22:13;7.45;;;4.80;;
32445;SDS011;18899;50.748;7.102;2023-06-14T02:24:40;7.53;;;3.97;;
32445;SDS011;18899;50.748;7.102;2023-06-14T02:27:06;6.80;;;4.63;;
32445;SDS011;18899;50.748;7.102;2023-06-14T02:29:31;8.85;;;4.50;;
32445;SDS011;18899;50.748;7.102;2023-06-14T02:31:57;7.18;;;4.38;;
32445;SDS011;18899;50.748;7.102;2023-06-14T02:34:22;9.60;;;4.78;;
32445;SDS011;18899;50.748;7.102;2023-06-14T02:36:48;6.75;;;4.35;;
32445;SDS011;18899;50.748;7.102;2023-06-14T02:39:14;8.57;;;5.18;;
32445;SDS011;18899;50.748;7.102;2023-06-14T02:41:40;7.72;;;4.28;;
32445;SDS011;18899;50.748;7.102;2023-06-14T02:44:06;11.55;;;5.25;;
32445;SDS011;18899;50.748;7.102;2023-06-14T02:46:32;8.23;;;4.95;;
32445;SDS011;18899;50.748;7.102;2023-06-14T02:48:57;10.13;;;5.50;;
32445;SDS011;18899;50.748;7.102;2023-06-14T02:51:23;9.55;;;6.03;;
32445;SDS011;18899;50.748;7.102;2023-06-14T02:53:49;15.65;;;9.13;;
32445;SDS011;18899;50.748;7.102;2023-06-14T02:56:14;18.50;;;9.35;;
32445;SDS011;18899;50.748;7.102;2023-06-14T02:58:42;13.73;;;7.88;;
32445;SDS011;18899;50.748;7.102;2023-06-14T03:01:08;11.43;;;6.53;;
32445;SDS011;18899;50.748;7.102;2023-06-14T03:03:35;9.13;;;5.18;;
32445;SDS011;18899;50.748;7.102;2023-06-14T03:06:00;9.15;;;5.32;;
32445;SDS011;18899;50.748;7.102;2023-06-14T03:08:29;7.88;;;5.13;;
32445;SDS011;18899;50.748;7.102;2023-06-14T03:10:55;9.32;;;4.55;;
32445;SDS011;18899;50.748;7.102;2023-06-14T03:13:21;6.68;;;4.13;;
32445;SDS011;18899;50.748;7.102;2023-06-14T03:15:47;9.18;;;4.50;;
32445;SDS011;18899;50.748;7.102;2023-06-14T03:18:15;8.75;;;4.55;;
32445;SDS011;18899;50.748;7.102;2023-06-14T03:20:41;6.93;;;4.53;;
32445;SDS011;18899;50.748;7.102;2023-06-14T03:23:10;6.90;;;4.45;;
32445;SDS011;18899;50.748;7.102;2023-06-14T03:25:36;8.38;;;4.90;;
32445;SDS011;18899;50.748;7.102;2023-06-14T03:28:03;7.97;;;4.78;;
32445;SDS011;18899;50.748;7.102;2023-06-14T03:30:30;7.90;;;4.88;;
32445;SDS011;18899;50.748;7.102;2023-06-14T03:32:56;8.98;;;5.00;;
32445;SDS011;18899;50.748;7.102;2023-06-14T03:35:22;9.50;;;5.22;;
32445;SDS011;18899;50.748;7.102;2023-06-14T03:37:48;8.23;;;4.65;;
32445;SDS011;18899;50.748;7.102;2023-06-14T03:40:15;7.90;;;4.70;;
32445;SDS011;18899;50.748;7.102;2023-06-14T03:42:42;7.82;;;4.80;;
32445;SDS011;18899;50.748;7.102;2023-06-14T03:45:08;8.48;;;4.72;;
32445;SDS011;18899;50.748;7.102;2023-06-14T03:47:34;6.20;;;4.07;;
32445;SDS011;18899;50.748;7.102;2023-06-14T03:50:03;6.82;;;4.15;;
32445;SDS011;18899;50.748;7.102;2023-06-14T03:52:30;8.52;;;3.97;;
32445;SDS011;18899;50.748;7.102;2023-06-14T03:54:56;9.23;;;4.57;;
32445;SDS011;18899;50.748;7.102;2023-06-14T03:57:22;7.22;;;4.13;;
32445;SDS011;18899;50.748;7.102;2023-06-14T03:59:48;9.45;;;4.30;;
32445;SDS011;18899;50.748;7.102;2023-06-14T04:02:13;7.13;;;4.43;;
32445;SDS011;18899;50.748;7.102;2023-06-14T04:04:42;7.80;;;4.50;;
32445;SDS011;18899;50.748;7.102;2023-06-14T04:07:13;7.05;;;4.10;;
32445;SDS011;18899;50.748;7.102;2023-06-14T04:09:40;8.55;;;4.20;;
32445;SDS011;18899;50.748;7.102;2023-06-14T04:12:06;8.25;;;4.63;;
32445;SDS011;18899;50.748;7.102;2023-06-14T04:14:34;6.75;;;4.55;;
32445;SDS011;18899;50.748;7.102;2023-06-14T04:17:00;8.43;;;4.75;;
32445;SDS011;18899;50.748;7.102;2023-06-14T04:19:25;7.65;;;4.25;;
32445;SDS011;18899;50.748;7.102;2023-06-14T04:21:51;11.77;;;4.70;;
32445;SDS011;18899;50.748;7.102;2023-06-14T04:24:17;11.65;;;4.53;;
32445;SDS011;18899;50.748;7.102;2023-06-14T04:26:43;10.68;;;4.80;;
32445;SDS011;18899;50.748;7.102;2023-06-14T04:29:16;11.82;;;4.28;;
32445;SDS011;18899;50.748;7.102;2023-06-14T04:31:45;9.25;;;4.70;;
32445;SDS011;18899;50.748;7.102;2023-06-14T04:34:11;10.55;;;4.35;;
32445;SDS011;18899;50.748;7.102;2023-06-14T04:36:44;8.07;;;4.25;;
32445;SDS011;18899;50.748;7.102;2023-06-14T04:39:21;6.43;;;4.07;;
32445;SDS011;18899;50.748;7.102;2023-06-14T04:41:47;9.80;;;4.32;;
32445;SDS011;18899;50.748;7.102;2023-06-14T04:44:13;10.40;;;4.45;;
32445;SDS011;18899;50.748;7.102;2023-06-14T04:46:39;9.38;;;4.32;;
32445;SDS011;18899;50.748;7.102;2023-06-14T04:49:17;7.25;;;3.83;;
32445;SDS011;18899;50.748;7.102;2023-06-14T04:51:43;5.97;;;3.67;;
32445;SDS011;18899;50.748;7.102;2023-06-14T04:54:09;6.00;;;3.58;;
32445;SDS011;18899;50.748;7.102;2023-06-14T04:56:38;10.23;;;4.03;;
32445;SDS011;18899;50.748;7.102;2023-06-14T04:59:04;12.60;;;4.53;;
32445;SDS011;18899;50.748;7.102;2023-06-14T05:01:30;10.20;;;4.30;;
32445;SDS011;18899;50.748;7.102;2023-06-14T05:03:59;5.55;;;3.60;;
32445;SDS011;18899;50.748;7.102;2023-06-14T05:06:24;10.90;;;3.60;;
32445;SDS011;18899;50.748;7.102;2023-06-14T05:08:52;5.97;;;3.70;;
32445;SDS011;18899;50.748;7.102;2023-06-14T05:11:18;6.47;;;4.35;;
32445;SDS011;18899;50.748;7.102;2023-06-14T05:13:43;7.72;;;3.42;;
32445;SDS011;18899;50.748;7.102;2023-06-14T05:16:10;8.75;;;4.10;;
32445;SDS011;18899;50.748;7.102;2023-06-14T05:18:40;5.30;;;3.85;;
32445;SDS011;18899;50.748;7.102;2023-06-14T05:21:06;6.72;;;3.55;;
32445;SDS011;18899;50.748;7.102;2023-06-14T05:23:32;6.47;;;3.40;;
32445;SDS011;18899;50.748;7.102;2023-06-14T05:25:57;9.02;;;3.72;;
32445;SDS011;18899;50.748;7.102;2023-06-14T05:28:23;6.03;;;3.92;;
32445;SDS011;18899;50.748;7.102;2023-06-14T05:30:49;5.75;;;3.80;;
32445;SDS011;18899;50.748;7.102;2023-06-14T05:33:16;7.35;;;4.07;;
32445;SDS011;18899;50.748;7.102;2023-06-14T05:35:41;7.72;;;3.00;;
32445;SDS011;18899;50.748;7.102;2023-06-14T05:38:07;8.85;;;3.67;;
32445;SDS011;18899;50.748;7.102;2023-06-14T05:40:33;8.15;;;3.40;;
32445;SDS011;18899;50.748;7.102;2023-06-14T05:42:59;11.80;;;3.70;;
32445;SDS011;18899;50.748;7.102;2023-06-14T05:45:24;6.45;;;3.25;;
32445;SDS011;18899;50.748;7.102;2023-06-14T05:47:50;8.30;;;3.30;;
32445;SDS011;18899;50.748;7.102;2023-06-14T05:50:16;5.85;;;3.53;;
32445;SDS011;18899;50.748;7.102;2023-06-14T05:52:41;6.65;;;3.67;;
32445;SDS011;18899;50.748;7.102;2023-06-14T05:55:07;6.57;;;3.60;;
32445;SDS011;18899;50.748;7.102;2023-06-14T05:57:33;9.43;;;3.70;;
32445;SDS011;18899;50.748;7.102;2023-06-14T05:59:59;5.13;;;3.47;;
32445;SDS011;18899;50.748;7.102;2023-06-14T06:02:24;5.07;;;3.17;;
32445;SDS011;18899;50.748;7.102;2023-06-14T06:04:50;10.85;;;3.45;;
32445;SDS011;18899;50.748;7.102;2023-06-14T06:07:15;9.63;;;3.38;;
32445;SDS011;18899;50.748;7.102;2023-06-14T06:09:41;6.63;;;3.70;;
32445;SDS011;18899;50.748;7.102;2023-06-14T06:12:07;8.15;;;3.30;;
32445;SDS011;18899;50.748;7.102;2023-06-14T06:14:32;6.68;;;2.70;;
32445;SDS011;18899;50.748;7.102;2023-06-14T06:16:58;10.23;;;2.35;;
32445;SDS011;18899;50.748;7.102;2023-06-14T06:19:23;12.48;;;2.90;;
32445;SDS011;18899;50.748;7.102;2023-06-14T06:21:49;11.15;;;2.83;;
32445;SDS011;18899;50.748;7.102;2023-06-14T06:24:15;4.30;;;2.53;;
32445;SDS011;18899;50.748;7.102;2023-06-14T06:26:41;7.80;;;2.50;;
32445;SDS011;18899;50.748;7.102;2023-06-14T06:29:07;6.25;;;2.58;;
32445;SDS011;18899;50.748;7.102;2023-06-14T06:31:32;4.38;;;2.38;;
32445;SDS011;18899;50.748;7.102;2023-06-14T06:33:58;8.07;;;2.55;;
32445;SDS011;18899;50.748;7.102;2023-06-14T06:36:24;5.82;;;2.88;;
32445;SDS011;18899;50.748;7.102;2023-06-14T06:38:49;7.65;;;2.72;;
32445;SDS011;18899;50.748;7.102;2023-06-14T06:41:15;5.07;;;2.40;;
32445;SDS011;18899;50.748;7.102;2023-06-14T06:43:41;5.10;;;2.70;;
32445;SDS011;18899;50.748;7.102;2023-06-14T06:46:06;4.93;;;2.10;;
32445;SDS011;18899;50.748;7.102;2023-06-14T06:48:32;6.00;;;2.67;;
32445;SDS011;18899;50.748;7.102;2023-06-14T06:50:57;5.40;;;2.67;;
32445;SDS011;18899;50.748;7.102;2023-06-14T06:53:23;4.40;;;2.38;;
32445;SDS011;18899;50.748;7.102;2023-06-14T06:55:48;11.70;;;2.47;;
32445;SDS011;18899;50.748;7.102;2023-06-14T06:58:14;6.70;;;2.45;;
32445;SDS011;18899;50.748;7.102;2023-06-14T07:00:40;7.40;;;2.60;;
32445;SDS011;18899;50.748;7.102;2023-06-14T07:03:06;11.20;;;2.97;;
32445;SDS011;18899;50.748;7.102;2023-06-14T07:05:31;8.95;;;2.92;;
32445;SDS011;18899;50.748;7.102;2023-06-14T07:07:57;3.58;;;2.10;;
32445;SDS011;18899;50.748;7.102;2023-06-14T07:10:23;8.07;;;2.53;;
32445;SDS011;18899;50.748;7.102;2023-06-14T07:12:49;4.57;;;2.67;;
32445;SDS011;18899;50.748;7.102;2023-06-14T07:15:15;7.80;;;2.33;;
32445;SDS011;18899;50.748;7.102;2023-06-14T07:17:41;4.32;;;2.42;;
32445;SDS011;18899;50.748;7.102;2023-06-14T07:20:07;7.45;;;2.17;;
32445;SDS011;18899;50.748;7.102;2023-06-14T07:22:36;3.10;;;1.80;;
32445;SDS011;18899;50.748;7.102;2023-06-14T07:25:03;3.53;;;2.00;;
32445;SDS011;18899;50.748;7.102;2023-06-14T07:27:29;5.90;;;1.80;;
32445;SDS011;18899;50.748;7.102;2023-06-14T07:29:54;5.40;;;1.77;;
32445;SDS011;18899;50.748;7.102;2023-06-14T07:32:20;7.55;;;2.03;;
32445;SDS011;18899;50.748;7.102;2023-06-14T07:34:45;3.50;;;1.85;;
32445;SDS011;18899;50.748;7.102;2023-06-14T07:37:11;5.75;;;2.00;;
32445;SDS011;18899;50.748;7.102;2023-06-14T07:39:36;6.15;;;2.05;;
32445;SDS011;18899;50.748;7.102;2023-06-14T07:42:02;3.00;;;1.60;;
32445;SDS011;18899;50.748;7.102;2023-06-14T07:44:29;6.13;;;1.63;;
32445;SDS011;18899;50.748;7.102;2023-06-14T07:46:56;3.30;;;1.60;;
32445;SDS011;18899;50.748;7.102;2023-06-14T07:49:23;3.00;;;1.92;;
32445;SDS011;18899;50.748;7.102;2023-06-14T07:51:49;3.13;;;1.63;;
32445;SDS011;18899;50.748;7.102;2023-06-14T07:54:16;2.70;;;1.70;;
32445;SDS011;18899;50.748;7.102;2023-06-14T07:56:41;2.72;;;1.52;;
32445;SDS011;18899;50.748;7.102;2023-06-14T07:59:07;3.67;;;1.52;;
32445;SDS011;18899;50.748;7.102;2023-06-14T08:01:32;3.60;;;1.30;;
32445;SDS011;18899;50.748;7.102;2023-06-14T08:03:58;2.03;;;1.20;;
32445;SDS011;18899;50.748;7.102;2023-06-14T08:06:24;2.78;;;1.52;;
32445;SDS011;18899;50.748;7.102;2023-06-14T08:08:50;1.80;;;1.10;;
32445;SDS011;18899;50.748;7.102;2023-06-14T08:11:15;3.17;;;1.25;;
32445;SDS011;18899;50.748;7.102;2023-06-14T08:13:41;2.40;;;1.70;;
32445;SDS011;18899;50.748;7.102;2023-06-14T08:16:06;2.05;;;1.45;;
32445;SDS011;18899;50.748;7.102;2023-06-14T08:18:32;4.20;;;1.48;;
32445;SDS011;18899;50.748;7.102;2023-06-14T08:20:57;3.00;;;1.50;;
32445;SDS011;18899;50.748;7.102;2023-06-14T08:23:23;4.18;;;1.60;;
32445;SDS011;18899;50.748;7.102;2023-06-14T08:25:48;2.60;;;1.40;;
32445;SDS011;18899;50.748;7.102;2023-06-14T08:28:14;6.07;;;1.50;;
32445;SDS011;18899;50.748;7.102;2023-06-14T08:30:40;2.67;;;1.65;;
32445;SDS011;18899;50.748;7.102;2023-06-14T08:33:07;3.95;;;1.60;;
32445;SDS011;18899;50.748;7.102;2023-06-14T08:35:33;4.28;;;1.90;;
32445;SDS011;18899;50.748;7.102;2023-06-14T08:37:58;2.97;;;1.67;;
32445;SDS011;18899;50.748;7.102;2023-06-14T08:40:24;2.97;;;1.40;;
32445;SDS011;18899;50.748;7.102;2023-06-14T08:42:51;5.82;;;1.10;;
32445;SDS011;18899;50.748;7.102;2023-06-14T08:45:18;4.75;;;1.23;;
32445;SDS011;18899;50.748;7.102;2023-06-14T08:47:48;3.38;;;1.73;;
32445;SDS011;18899;50.748;7.102;2023-06-14T08:50:18;3.22;;;1.35;;
32445;SDS011;18899;50.748;7.102;2023-06-14T08:52:46;2.55;;;1.38;;
32445;SDS011;18899;50.748;7.102;2023-06-14T08:55:18;2.60;;;1.30;;
32445;SDS011;18899;50.748;7.102;2023-06-14T08:57:45;4.88;;;1.80;;
32445;SDS011;18899;50.748;7.102;2023-06-14T09:00:12;2.88;;;1.52;;
32445;SDS011;18899;50.748;7.102;2023-06-14T09:02:38;4.60;;;1.40;;
32445;SDS011;18899;50.748;7.102;2023-06-14T09:05:08;2.53;;;1.30;;
32445;SDS011;18899;50.748;7.102;2023-06-14T09:07:34;2.65;;;1.40;;
32445;SDS011;18899;50.748;7.102;2023-06-14T09:10:20;2.78;;;1.25;;
32445;SDS011;18899;50.748;7.102;2023-06-14T09:12:46;3.65;;;1.48;;
32445;SDS011;18899;50.748;7.102;2023-06-14T09:15:12;1.55;;;1.17;;
32445;SDS011;18899;50.748;7.102;2023-06-14T09:17:39;2.28;;;1.40;;
32445;SDS011;18899;50.748;7.102;2023-06-14T09:20:05;2.03;;;1.02;;
32445;SDS011;18899;50.748;7.102;2023-06-14T09:22:34;4.70;;;1.20;;
32445;SDS011;18899;50.748;7.102;2023-06-14T09:25:00;3.45;;;1.10;;
32445;SDS011;18899;50.748;7.102;2023-06-14T09:27:26;2.63;;;1.30;;
32445;SDS011;18899;50.748;7.102;2023-06-14T09:29:53;1.50;;;1.00;;
32445;SDS011;18899;50.748;7.102;2023-06-14T09:32:19;1.85;;;1.20;;
32445;SDS011;18899;50.748;7.102;2023-06-14T09:34:45;2.25;;;1.35;;
32445;SDS011;18899;50.748;7.102;2023-06-14T09:37:11;5.72;;;1.30;;
32445;SDS011;18899;50.748;7.102;2023-06-14T09:40:10;1.38;;;0.90;;
32445;SDS011;18899;50.748;7.102;2023-06-14T09:42:29;3.42;;;1.23;;
32445;SDS011;18899;50.748;7.102;2023-06-14T09:44:55;1.52;;;0.93;;
32445;SDS011;18899;50.748;7.102;2023-06-14T09:47:22;3.13;;;1.38;;
32445;SDS011;18899;50.748;7.102;2023-06-14T09:49:49;1.85;;;1.23;;
32445;SDS011;18899;50.748;7.102;2023-06-14T09:52:16;2.60;;;1.30;;
32445;SDS011;18899;50.748;7.102;2023-06-14T09:54:43;4.57;;;1.55;;
32445;SDS011;18899;50.748;7.102;2023-06-14T09:57:11;2.38;;;1.20;;
32445;SDS011;18899;50.748;7.102;2023-06-14T09:59:39;3.13;;;1.40;;
32445;SDS011;18899;50.748;7.102;2023-06-14T10:02:24;3.28;;;1.20;;
32445;SDS011;18899;50.748;7.102;2023-06-14T10:04:56;2.95;;;1.38;;
32445;SDS011;18899;50.748;7.102;2023-06-14T10:07:32;4.63;;;1.55;;
32445;SDS011;18899;50.748;7.102;2023-06-14T10:10:03;2.97;;;1.30;;
32445;SDS011;18899;50.748;7.102;2023-06-14T10:12:30;2.30;;;1.38;;
32445;SDS011;18899;50.748;7.102;2023-06-14T10:14:56;1.98;;;1.30;;
32445;SDS011;18899;50.748;7.102;2023-06-14T10:17:33;4.63;;;1.63;;
32445;SDS011;18899;50.748;7.102;2023-06-14T10:22:58;3.78;;;1.08;;
32445;SDS011;18899;50.748;7.102;2023-06-14T10:25:29;1.67;;;1.20;;
32445;SDS011;18899;50.748;7.102;2023-06-14T10:28:02;3.38;;;1.50;;
32445;SDS011;18899;50.748;7.102;2023-06-14T10:31:02;2.60;;;1.17;;
32445;SDS011;18899;50.748;7.102;2023-06-14T10:38:56;5.93;;;1.13;;
32445;SDS011;18899;50.748;7.102;2023-06-14T10:41:23;4.60;;;1.38;;
32445;SDS011;18899;50.748;7.102;2023-06-14T10:43:50;3.92;;;1.20;;
32445;SDS011;18899;50.748;7.102;2023-06-14T10:46:19;2.35;;;1.15;;
32445;SDS011;18899;50.748;7.102;2023-06-14T10:48:48;3.33;;;1.48;;
32445;SDS011;18899;50.748;7.102;2023-06-14T10:51:20;3.17;;;1.60;;
32445;SDS011;18899;50.748;7.102;2023-06-14T10:53:49;4.55;;;1.13;;
32445;SDS011;18899;50.748;7.102;2023-06-14T10:56:28;4.25;;;1.45;;
32445;SDS011;18899;50.748;7.102;2023-06-14T10:58:56;2.65;;;1.20;;
32445;SDS011;18899;50.748;7.102;2023-06-14T11:01:36;5.25;;;1.40;;
32445;SDS011;18899;50.748;7.102;2023-06-14T11:04:06;1.98;;;1.20;;
32445;SDS011;18899;50.748;7.102;2023-06-14T11:06:44;1.95;;;1.23;;
32445;SDS011;18899;50.748;7.102;2023-06-14T11:12:01;3.72;;;1.10;;
32445;SDS011;18899;50.748;7.102;2023-06-14T11:14:29;3.67;;;1.70;;
32445;SDS011;18899;50.748;7.102;2023-06-14T11:16:56;1.70;;;1.20;;
32445;SDS011;18899;50.748;7.102;2023-06-14T11:19:21;2.42;;;1.38;;
32445;SDS011;18899;50.748;7.102;2023-06-14T11:21:48;2.58;;;1.58;;
32445;SDS011;18899;50.748;7.102;2023-06-14T11:24:13;1.85;;;1.20;;
32445;SDS011;18899;50.748;7.102;2023-06-14T11:26:40;2.58;;;1.33;;
32445;SDS011;18899;50.748;7.102;2023-06-14T11:29:06;3.17;;;1.40;;
32445;SDS011;18899;50.748;7.102;2023-06-14T11:31:31;1.88;;;1.17;;
32445;SDS011;18899;50.748;7.102;2023-06-14T11:33:57;1.90;;;1.30;;
32445;SDS011;18899;50.748;7.102;2023-06-14T11:36:31;2.05;;;1.23;;
32445;SDS011;18899;50.748;7.102;2023-06-14T11:38:59;3.90;;;1.42;;
32445;SDS011;18899;50.748;7.102;2023-06-14T11:41:31;3.97;;;1.60;;
32445;SDS011;18899;50.748;7.102;2023-06-14T11:44:08;5.10;;;1.30;;
32445;SDS011;18899;50.748;7.102;2023-06-14T11:46:34;4.45;;;1.50;;
32445;SDS011;18899;50.748;7.102;2023-06-14T11:49:00;2.03;;;1.33;;
32445;SDS011;18899;50.748;7.102;2023-06-14T11:51:29;5.72;;;1.27;;
32445;SDS011;18899;50.748;7.102;2023-06-14T11:53:58;1.50;;;1.03;;
32445;SDS011;18899;50.748;7.102;2023-06-14T11:56:24;1.60;;;0.95;;
32445;SDS011;18899;50.748;7.102;2023-06-14T11:58:52;3.70;;;1.10;;
32445;SDS011;18899;50.748;7.102;2023-06-14T12:01:18;1.52;;;1.00;;
32445;SDS011;18899;50.748;7.102;2023-06-14T12:03:47;3.30;;;1.13;;
32445;SDS011;18899;50.748;7.102;2023-06-14T12:06:14;5.83;;;1.43;;
32445;SDS011;18899;50.748;7.102;2023-06-14T12:08:39;2.13;;;1.38;;
32445;SDS011;18899;50.748;7.102;2023-06-14T12:11:11;2.38;;;0.95;;
32445;SDS011;18899;50.748;7.102;2023-06-14T12:16:06;1.65;;;0.93;;
32445;SDS011;18899;50.748;7.102;2023-06-14T12:18:36;4.68;;;1.10;;
32445;SDS011;18899;50.748;7.102;2023-06-14T12:21:04;2.95;;;1.13;;
32445;SDS011;18899;50.748;7.102;2023-06-14T12:23:46;2.55;;;1.08;;
32445;SDS011;18899;50.748;7.102;2023-06-14T12:26:13;2.50;;;1.05;;
32445;SDS011;18899;50.748;7.102;2023-06-14T12:28:40;2.00;;;1.00;;
32445;SDS011;18899;50.748;7.102;2023-06-14T12:31:10;2.65;;;1.13;;
32445;SDS011;18899;50.748;7.102;2023-06-14T12:33:37;3.25;;;1.10;;
32445;SDS011;18899;50.748;7.102;2023-06-14T12:36:12;5.10;;;1.27;;
32445;SDS011;18899;50.748;7.102;2023-06-14T12:38:38;1.00;;;0.75;;
32445;SDS011;18899;50.748;7.102;2023-06-14T12:41:04;1.20;;;0.77;;
32445;SDS011;18899;50.748;7.102;2023-06-14T12:43:29;1.23;;;0.90;;
32445;SDS011;18899;50.748;7.102;2023-06-14T12:45:55;1.52;;;1.00;;
32445;SDS011;18899;50.748;7.102;2023-06-14T12:48:20;1.35;;;0.82;;
32445;SDS011;18899;50.748;7.102;2023-06-14T12:53:12;6.13;;;1.30;;
32445;SDS011;18899;50.748;7.102;2023-06-14T12:55:38;1.30;;;0.98;;
32445;SDS011;18899;50.748;7.102;2023-06-14T12:58:03;1.73;;;1.00;;
32445;SDS011;18899;50.748;7.102;2023-06-14T13:00:29;6.22;;;1.00;;
32445;SDS011;18899;50.748;7.102;2023-06-14T13:02:55;4.80;;;1.30;;
32445;SDS011;18899;50.748;7.102;2023-06-14T13:05:21;4.30;;;0.90;;
32445;SDS011;18899;50.748;7.102;2023-06-14T13:07:47;5.03;;;1.08;;
32445;SDS011;18899;50.748;7.102;2023-06-14T13:10:13;1.52;;;0.85;;
32445;SDS011;18899;50.748;7.102;2023-06-14T13:12:38;3.05;;;1.25;;
32445;SDS011;18899;50.748;7.102;2023-06-14T13:15:05;8.05;;;1.10;;
32445;SDS011;18899;50.748;7.102;2023-06-14T13:17:32;1.98;;;0.90;;
32445;SDS011;18899;50.748;7.102;2023-06-14T13:20:03;2.08;;;1.00;;
32445;SDS011;18899;50.748;7.102;2023-06-14T13:22:32;4.07;;;0.93;;
32445;SDS011;18899;50.748;7.102;2023-06-14T13:24:58;11.25;;;1.40;;
32445;SDS011;18899;50.748;7.102;2023-06-14T13:27:23;4.22;;;1.30;;
32445;SDS011;18899;50.748;7.102;2023-06-14T13:29:49;5.78;;;1.52;;
32445;SDS011;18899;50.748;7.102;2023-06-14T13:32:15;8.32;;;1.42;;
32445;SDS011;18899;50.748;7.102;2023-06-14T13:34:41;6.10;;;1.08;;
32445;SDS011;18899;50.748;7.102;2023-06-14T13:37:06;3.10;;;1.70;;
32445;SDS011;18899;50.748;7.102;2023-06-14T13:39:32;4.45;;;1.52;;
32445;SDS011;18899;50.748;7.102;2023-06-14T13:41:57;2.42;;;1.30;;
32445;SDS011;18899;50.748;7.102;2023-06-14T13:44:23;4.63;;;1.30;;
32445;SDS011;18899;50.748;7.102;2023-06-14T13:46:49;3.17;;;1.50;;
32445;SDS011;18899;50.748;7.102;2023-06-14T13:49:15;4.15;;;1.30;;
32445;SDS011;18899;50.748;7.102;2023-06-14T13:51:41;3.70;;;1.23;;
32445;SDS011;18899;50.748;7.102;2023-06-14T13:54:07;3.78;;;1.23;;
32445;SDS011;18899;50.748;7.102;2023-06-14T13:56:33;2.10;;;1.45;;
32445;SDS011;18899;50.748;7.102;2023-06-14T13:58:58;3.38;;;1.48;;
32445;SDS011;18899;50.748;7.102;2023-06-14T14:01:25;3.05;;;1.20;;
32445;SDS011;18899;50.748;7.102;2023-06-14T14:03:51;2.30;;;1.20;;
32445;SDS011;18899;50.748;7.102;2023-06-14T14:06:17;3.45;;;1.77;;
32445;SDS011;18899;50.748;7.102;2023-06-14T14:08:42;1.90;;;1.35;;
32445;SDS011;18899;50.748;7.102;2023-06-14T14:11:09;2.05;;;1.25;;
32445;SDS011;18899;50.748;7.102;2023-06-14T14:13:35;4.82;;;1.38;;
32445;SDS011;18899;50.748;7.102;2023-06-14T14:16:01;3.20;;;1.40;;
32445;SDS011;18899;50.748;7.102;2023-06-14T14:18:28;2.40;;;1.45;;
32445;SDS011;18899;50.748;7.102;2023-06-14T14:20:54;2.28;;;1.40;;
32445;SDS011;18899;50.748;7.102;2023-06-14T14:23:20;2.88;;;1.23;;
32445;SDS011;18899;50.748;7.102;2023-06-14T14:25:46;2.88;;;1.45;;
32445;SDS011;18899;50.748;7.102;2023-06-14T14:28:12;3.72;;;1.60;;
32445;SDS011;18899;50.748;7.102;2023-06-14T14:30:40;3.35;;;1.25;;
32445;SDS011;18899;50.748;7.102;2023-06-14T14:33:06;3.03;;;1.30;;
32445;SDS011;18899;50.748;7.102;2023-06-14T14:35:32;2.10;;;1.30;;
32445;SDS011;18899;50.748;7.102;2023-06-14T14:37:58;3.10;;;1.30;;
32445;SDS011;18899;50.748;7.102;2023-06-14T14:40:23;3.40;;;1.38;;
32445;SDS011;18899;50.748;7.102;2023-06-14T14:42:49;2.42;;;1.23;;
32445;SDS011;18899;50.748;7.102;2023-06-14T14:45:15;44.22;;;3.90;;
32445;SDS011;18899;50.748;7.102;2023-06-14T14:47:40;4.00;;;1.35;;
32445;SDS011;18899;50.748;7.102;2023-06-14T14:50:06;4.90;;;1.27;;
32445;SDS011;18899;50.748;7.102;2023-06-14T14:52:34;1.88;;;1.20;;
32445;SDS011;18899;50.748;7.102;2023-06-14T14:55:00;4.05;;;1.42;;
32445;SDS011;18899;50.748;7.102;2023-06-14T14:57:26;2.60;;;1.50;;
32445;SDS011;18899;50.748;7.102;2023-06-14T14:59:52;2.50;;;1.30;;
32445;SDS011;18899;50.748;7.102;2023-06-14T15:02:17;1.98;;;1.40;;